MZI weather

Mopti Airport
Mopti Region, Mali

Public forecast

Using degrees Celsius for public forecast. Weather courtesy of forecast.io.

Current aviation weather report (METAR) for Mopti Airport

Retrieved 2020/02/26 03:00 UTC (25 minutes ago):

GAMB 260300Z 36004KT 8000 NSC 21/02 Q1012

Closest aviation forecast (TAF) to Mopti Airport

Closest forecast is Modibo Keita International Airport, 255.3 nm (472.8 km) WSW. Retrieved 2020-02-26 00:00 UTC (3 hours ago):

TAF GABS 252300Z 2600/2706 04010KT CAVOK PROB40 TEMPO 2606/2615 4000 DU